createdAt,value
2023-05-10T00:00:54.115Z,8.15
2023-05-10T00:03:43.548Z,7.80
2023-05-10T00:06:32.507Z,8.32
2023-05-10T00:09:20.536Z,9.15
2023-05-10T00:12:08.668Z,9.13
2023-05-10T00:14:56.656Z,10.35
2023-05-10T00:17:44.715Z,9.90
2023-05-10T00:20:34.270Z,10.30
2023-05-10T00:23:22.364Z,10.60
2023-05-10T00:26:10.319Z,10.68
2023-05-10T00:28:59.525Z,11.18
2023-05-10T00:31:47.571Z,11.33
2023-05-10T00:34:35.631Z,12.55
2023-05-10T00:37:25.104Z,12.10
2023-05-10T00:40:14.199Z,11.02
2023-05-10T00:43:02.475Z,11.60
2023-05-10T00:45:51.426Z,11.83
2023-05-10T00:48:39.522Z,10.45
2023-05-10T00:51:27.709Z,11.18
2023-05-10T00:54:17.949Z,12.00
2023-05-10T00:57:06.283Z,12.02
2023-05-10T00:59:54.367Z,15.60
2023-05-10T01:02:43.328Z,16.30
2023-05-10T01:05:31.465Z,18.48
2023-05-10T01:08:19.960Z,20.00
2023-05-10T01:11:09.514Z,19.55
2023-05-10T01:13:59.249Z,18.80
2023-05-10T01:16:49.566Z,18.70
2023-05-10T01:19:39.010Z,17.00
2023-05-10T01:23:00.159Z,16.38
2023-05-10T01:26:29.349Z,17.00
2023-05-10T01:29:45.086Z,15.40
2023-05-10T01:32:38.636Z,16.13
2023-05-10T01:35:36.470Z,16.02
2023-05-10T01:38:34.955Z,17.00
2023-05-10T01:41:30.199Z,16.52
2023-05-10T01:44:22.515Z,17.50
2023-05-10T01:47:13.361Z,16.20
2023-05-10T01:50:06.218Z,17.35
2023-05-10T01:52:58.272Z,16.45
2023-05-10T01:55:49.882Z,17.08
2023-05-10T01:58:41.678Z,17.60
2023-05-10T02:01:29.791Z,17.85
2023-05-10T02:04:20.796Z,17.55
2023-05-10T02:07:11.599Z,18.02
2023-05-10T02:10:00.542Z,18.25
2023-05-10T02:12:51.493Z,17.90
2023-05-10T02:15:42.141Z,18.80
2023-05-10T02:18:31.060Z,19.70
2023-05-10T02:21:21.245Z,18.15
2023-05-10T02:24:12.761Z,20.38
2023-05-10T02:27:02.360Z,20.60
2023-05-10T02:29:51.884Z,22.02
2023-05-10T02:32:40.887Z,20.60
2023-05-10T02:35:29.912Z,22.48
2023-05-10T02:38:21.021Z,24.15
2023-05-10T02:41:12.324Z,28.07
2023-05-10T02:44:03.598Z,25.98
2023-05-10T02:46:51.926Z,23.45
2023-05-10T02:49:39.998Z,25.45
2023-05-10T02:52:31.925Z,31.80
2023-05-10T02:55:23.382Z,28.50
2023-05-10T02:58:13.205Z,28.98
2023-05-10T03:01:02.005Z,33.30
2023-05-10T03:03:50.151Z,30.50
2023-05-10T03:06:38.301Z,28.70
2023-05-10T03:09:26.743Z,26.30
2023-05-10T03:12:20.347Z,32.15
2023-05-10T03:15:15.841Z,29.95
2023-05-10T03:18:08.882Z,32.03
2023-05-10T03:21:01.360Z,30.90
2023-05-10T03:23:54.146Z,31.17
2023-05-10T03:26:44.943Z,30.05
2023-05-10T03:29:33.948Z,29.38
2023-05-10T03:32:24.062Z,30.60
2023-05-10T03:35:14.177Z,26.33
2023-05-10T03:38:02.232Z,26.83
2023-05-10T03:40:50.261Z,27.33
2023-05-10T03:43:38.254Z,28.13
2023-05-10T03:46:26.337Z,25.85
2023-05-10T03:49:15.752Z,30.98
2023-05-10T03:52:03.751Z,29.13
2023-05-10T03:54:51.843Z,30.10
2023-05-10T03:57:39.918Z,27.75
2023-05-10T04:00:27.951Z,29.63
2023-05-10T04:03:16.358Z,28.15
2023-05-10T04:06:07.055Z,25.07
2023-05-10T04:08:56.204Z,22.27
2023-05-10T04:11:44.257Z,20.27
2023-05-10T04:14:32.190Z,13.90
2023-05-10T04:17:20.258Z,14.75
2023-05-10T04:20:09.363Z,11.63
2023-05-10T04:22:58.873Z,10.60
2023-05-10T04:25:46.888Z,11.50
2023-05-10T04:28:35.036Z,10.02
2023-05-10T04:31:23.108Z,8.30
2023-05-10T04:34:11.120Z,6.80
2023-05-10T04:36:59.094Z,7.15
2023-05-10T04:39:48.590Z,5.93
2023-05-10T04:42:36.538Z,5.70
2023-05-10T04:45:24.476Z,5.65
2023-05-10T04:48:12.427Z,5.47
2023-05-10T04:51:00.580Z,5.22
2023-05-10T04:54:01.703Z,6.05
2023-05-10T04:56:54.232Z,5.70
2023-05-10T04:59:42.335Z,5.75
2023-05-10T05:02:30.586Z,6.13
2023-05-10T05:05:18.769Z,6.90
2023-05-10T05:08:06.877Z,7.88
2023-05-10T05:10:55.372Z,7.82
2023-05-10T05:13:44.831Z,8.10
2023-05-10T05:16:32.954Z,7.80
2023-05-10T05:19:20.952Z,7.80
2023-05-10T05:22:09.074Z,7.35
2023-05-10T05:24:57.455Z,8.38
2023-05-10T05:27:45.512Z,7.18
2023-05-10T05:30:34.897Z,7.47
2023-05-10T05:33:22.865Z,7.78
2023-05-10T05:36:11.202Z,7.60
2023-05-10T05:38:59.352Z,5.88
2023-05-10T05:41:47.366Z,6.40
2023-05-10T05:44:35.349Z,6.03
2023-05-10T05:47:24.884Z,5.75
2023-05-10T05:50:13.112Z,5.97
2023-05-10T05:53:01.067Z,6.82
2023-05-10T05:55:55.930Z,6.20
2023-05-10T05:58:43.917Z,6.50
2023-05-10T06:01:31.951Z,6.55
2023-05-10T06:04:21.385Z,5.75
2023-05-10T06:07:09.410Z,6.32
2023-05-10T06:09:57.872Z,6.90
2023-05-10T06:12:46.087Z,7.33
2023-05-10T06:15:34.673Z,6.68
2023-05-10T06:18:22.988Z,7.10
2023-05-10T06:21:12.276Z,7.00
2023-05-10T06:24:00.225Z,7.20
2023-05-10T06:26:48.178Z,7.57
2023-05-10T06:29:36.257Z,8.27
2023-05-10T06:32:24.270Z,6.97
2023-05-10T06:35:12.297Z,7.10
2023-05-10T06:38:02.016Z,6.78
2023-05-10T06:40:50.034Z,6.83
2023-05-10T06:43:40.875Z,6.65
2023-05-10T06:46:28.996Z,5.97
2023-05-10T06:49:17.141Z,5.75
2023-05-10T06:52:05.414Z,6.05
2023-05-10T06:54:54.753Z,5.77
2023-05-10T06:57:42.844Z,6.65
2023-05-10T07:00:30.981Z,6.70
2023-05-10T07:03:20.201Z,6.10
2023-05-10T07:06:13.331Z,7.00
2023-05-10T07:09:06.824Z,5.80
2023-05-10T07:11:56.552Z,5.75
2023-05-10T07:14:44.679Z,6.22
2023-05-10T07:17:34.388Z,5.72
2023-05-10T07:20:22.592Z,5.43
2023-05-10T07:23:10.630Z,5.57
2023-05-10T07:25:58.926Z,5.75
2023-05-10T07:28:48.950Z,5.70
2023-05-10T07:31:37.093Z,6.35
2023-05-10T07:34:25.174Z,6.95
2023-05-10T07:37:13.292Z,6.50
2023-05-10T07:40:01.230Z,6.13
2023-05-10T07:42:49.288Z,5.68
2023-05-10T07:45:38.673Z,6.10
2023-05-10T07:48:26.649Z,5.05
2023-05-10T07:51:14.715Z,5.33
2023-05-10T07:54:03.519Z,5.18
2023-05-10T07:56:51.602Z,5.78
2023-05-10T07:59:39.614Z,5.28
2023-05-10T08:02:29.212Z,4.82
2023-05-10T08:05:17.729Z,5.03
2023-05-10T08:08:06.047Z,4.47
2023-05-10T08:10:54.105Z,4.90
2023-05-10T08:13:42.082Z,4.13
2023-05-10T08:16:30.246Z,4.15
2023-05-10T08:19:22.193Z,4.90
2023-05-10T08:22:11.144Z,4.45
2023-05-10T08:24:59.125Z,4.63
2023-05-10T08:27:47.169Z,4.35
2023-05-10T08:30:35.221Z,4.25
2023-05-10T08:33:23.210Z,4.33
2023-05-10T08:36:15.197Z,4.13
2023-05-10T08:39:03.275Z,4.18
2023-05-10T08:41:53.834Z,4.00
2023-05-10T08:44:42.053Z,3.70
2023-05-10T08:47:31.213Z,3.40
2023-05-10T08:50:22.972Z,3.40
2023-05-10T08:53:14.136Z,4.50
2023-05-10T08:56:04.059Z,4.30
2023-05-10T08:58:52.711Z,4.95
2023-05-10T09:01:41.242Z,4.87
2023-05-10T09:04:30.187Z,4.97
2023-05-10T09:07:18.956Z,4.82
2023-05-10T09:10:10.192Z,4.90
2023-05-10T09:12:59.521Z,5.05
2023-05-10T09:15:48.977Z,4.40
2023-05-10T09:18:36.947Z,4.95
2023-05-10T09:21:24.952Z,4.53
2023-05-10T09:24:14.118Z,5.20
2023-05-10T09:27:03.699Z,4.70
2023-05-10T09:29:55.280Z,4.80
2023-05-10T09:32:44.712Z,6.00
2023-05-10T09:35:34.455Z,4.88
2023-05-10T09:38:22.446Z,5.20
2023-05-10T09:41:18.423Z,5.20
2023-05-10T09:44:09.484Z,4.93
2023-05-10T09:46:58.006Z,5.22
2023-05-10T09:49:46.095Z,4.93
2023-05-10T09:52:49.276Z,4.57
2023-05-10T09:55:42.180Z,4.93
2023-05-10T09:58:30.177Z,4.43
2023-05-10T10:01:19.608Z,4.63
2023-05-10T10:04:09.298Z,6.13
2023-05-10T10:07:04.983Z,5.43
2023-05-10T10:09:53.884Z,5.03
2023-05-10T10:12:43.154Z,5.87
2023-05-10T10:15:31.323Z,5.63
2023-05-10T10:18:24.948Z,5.75
2023-05-10T10:21:15.563Z,5.70
2023-05-10T10:24:06.254Z,5.60
2023-05-10T10:26:56.899Z,6.60
2023-05-10T10:29:52.433Z,5.50
2023-05-10T10:32:57.510Z,5.55
2023-05-10T10:35:47.887Z,5.78
2023-05-10T10:38:40.588Z,5.68
2023-05-10T10:41:34.193Z,5.63
2023-05-10T10:44:36.483Z,6.70
2023-05-10T10:47:25.918Z,6.00
2023-05-10T10:50:14.616Z,5.78
2023-05-10T10:53:13.141Z,6.70
2023-05-10T10:56:10.367Z,6.03
2023-05-10T10:59:02.621Z,6.80
2023-05-10T11:01:54.203Z,6.55
2023-05-10T11:04:47.621Z,5.97
2023-05-10T11:07:35.815Z,6.68
2023-05-10T11:10:26.615Z,5.90
2023-05-10T11:13:14.669Z,5.43
2023-05-10T11:16:16.538Z,5.38
2023-05-10T11:19:06.179Z,4.60
2023-05-10T11:22:14.756Z,4.95
2023-05-10T11:25:03.414Z,5.17
2023-05-10T11:27:52.937Z,4.30
2023-05-10T11:30:41.740Z,5.00
2023-05-10T11:33:29.838Z,4.70
2023-05-10T11:36:19.081Z,4.53
2023-05-10T11:39:07.578Z,4.53
2023-05-10T11:41:56.335Z,4.50
2023-05-10T11:44:47.808Z,4.50
2023-05-10T11:47:36.650Z,4.13
2023-05-10T11:50:24.745Z,4.43
2023-05-10T11:53:12.664Z,4.90
2023-05-10T11:56:05.446Z,5.45
2023-05-10T11:58:57.691Z,4.40
2023-05-10T12:01:47.273Z,4.65
2023-05-10T12:04:35.606Z,4.18
2023-05-10T12:07:24.007Z,4.23
2023-05-10T12:10:15.629Z,4.30
2023-05-10T12:13:04.152Z,4.43
2023-05-10T12:15:52.275Z,4.32
2023-05-10T12:18:42.802Z,4.30
2023-05-10T12:21:32.386Z,4.67
2023-05-10T12:24:22.463Z,4.30
2023-05-10T12:27:10.856Z,4.65
2023-05-10T12:30:01.204Z,4.15
2023-05-10T12:32:49.575Z,5.20
2023-05-10T12:35:47.928Z,4.20
2023-05-10T12:38:39.038Z,4.53
2023-05-10T12:41:26.980Z,4.30
2023-05-10T12:44:15.021Z,4.18
2023-05-10T12:47:03.024Z,4.53
2023-05-10T12:49:52.093Z,3.93
2023-05-10T12:52:41.560Z,4.10
2023-05-10T12:55:29.449Z,3.75
2023-05-10T12:58:31.496Z,4.53
2023-05-10T13:01:23.401Z,4.10
2023-05-10T13:04:11.498Z,4.80
2023-05-10T13:06:59.957Z,3.83
2023-05-10T13:09:49.685Z,3.85
2023-05-10T13:12:37.756Z,3.30
2023-05-10T13:15:25.812Z,3.80
2023-05-10T13:18:13.866Z,4.27
2023-05-10T13:21:01.911Z,3.90
2023-05-10T13:23:49.925Z,3.33
2023-05-10T13:26:39.218Z,3.70
2023-05-10T13:29:27.153Z,3.60
2023-05-10T13:32:15.085Z,3.73
2023-05-10T13:35:04.088Z,3.55
2023-05-10T13:37:52.885Z,3.60
2023-05-10T13:40:40.783Z,3.28
2023-05-10T13:43:31.168Z,3.40
2023-05-10T13:46:19.625Z,3.37
2023-05-10T13:49:08.020Z,3.80
2023-05-10T13:51:55.978Z,4.03
2023-05-10T13:54:43.967Z,3.90
2023-05-10T13:57:32.178Z,4.22
2023-05-10T14:00:21.989Z,3.40
2023-05-10T14:03:12.066Z,4.07
2023-05-10T14:06:00.442Z,3.78
2023-05-10T14:08:48.358Z,4.13
2023-05-10T14:11:36.273Z,3.72
2023-05-10T14:14:24.162Z,3.70
2023-05-10T14:17:13.495Z,3.55
2023-05-10T14:20:01.597Z,3.53
2023-05-10T14:22:49.901Z,3.17
2023-05-10T14:25:38.916Z,3.60
2023-05-10T14:28:27.176Z,3.30
2023-05-10T14:31:15.537Z,3.78
2023-05-10T14:34:04.893Z,3.10
2023-05-10T14:36:52.889Z,3.35
2023-05-10T14:39:41.213Z,3.35
2023-05-10T14:42:29.468Z,3.27
2023-05-10T14:45:17.714Z,3.13
2023-05-10T14:48:06.766Z,3.65
2023-05-10T14:50:56.279Z,2.92
2023-05-10T14:53:44.657Z,2.50
2023-05-10T14:56:33.837Z,3.03
2023-05-10T14:59:22.646Z,3.15
2023-05-10T15:02:11.420Z,2.72
2023-05-10T15:05:00.123Z,2.55
2023-05-10T15:07:50.179Z,2.80
2023-05-10T15:10:38.256Z,2.53
2023-05-10T15:13:26.415Z,2.60
2023-05-10T15:16:14.787Z,3.20
2023-05-10T15:19:02.908Z,3.30
2023-05-10T15:21:50.938Z,2.58
2023-05-10T15:24:40.226Z,3.50
2023-05-10T15:27:28.307Z,3.17
2023-05-10T15:30:16.536Z,3.50
2023-05-10T15:33:04.508Z,3.50
2023-05-10T15:35:54.516Z,3.30
2023-05-10T15:38:42.449Z,3.40
2023-05-10T15:41:32.022Z,3.50
2023-05-10T15:44:20.073Z,3.67
2023-05-10T15:47:08.099Z,3.20
2023-05-10T15:49:56.132Z,3.85
2023-05-10T15:52:44.199Z,3.57
2023-05-10T15:55:32.288Z,3.70
2023-05-10T15:58:21.703Z,3.58
2023-05-10T16:01:09.806Z,4.30
2023-05-10T16:03:57.747Z,5.13
2023-05-10T16:06:46.048Z,5.07
2023-05-10T16:09:34.089Z,5.18
2023-05-10T16:12:22.130Z,5.03
2023-05-10T16:15:12.043Z,4.25
2023-05-10T16:18:00.042Z,5.03
2023-05-10T16:20:48.120Z,4.67
2023-05-10T16:23:36.737Z,5.45
2023-05-10T16:26:24.840Z,4.50
2023-05-10T16:29:12.778Z,5.57
2023-05-10T16:32:02.108Z,6.00
2023-05-10T16:34:50.340Z,6.07
2023-05-10T16:37:38.622Z,5.93
2023-05-10T16:40:26.681Z,5.85
2023-05-10T16:43:14.607Z,5.78
2023-05-10T16:46:02.666Z,4.75
2023-05-10T16:48:52.020Z,4.67
2023-05-10T16:51:40.859Z,5.30
2023-05-10T16:54:30.105Z,5.55
2023-05-10T16:57:18.132Z,6.18
2023-05-10T17:00:08.510Z,5.78
2023-05-10T17:02:57.106Z,5.30
2023-05-10T17:05:46.521Z,5.90
2023-05-10T17:08:34.525Z,5.35
2023-05-10T17:11:22.560Z,5.18
2023-05-10T17:14:10.815Z,5.13
2023-05-10T17:16:58.767Z,5.20
2023-05-10T17:19:46.825Z,5.10
2023-05-10T17:22:36.167Z,5.20
2023-05-10T17:25:24.302Z,5.55
2023-05-10T17:28:12.343Z,5.05
2023-05-10T17:31:00.450Z,4.63
2023-05-10T17:33:48.367Z,4.95
2023-05-10T17:36:36.795Z,4.65
2023-05-10T17:39:26.185Z,4.72
2023-05-10T17:42:17.401Z,4.70
2023-05-10T17:45:05.979Z,4.27
2023-05-10T17:47:53.992Z,4.50
2023-05-10T17:50:43.047Z,4.13
2023-05-10T17:53:31.409Z,3.60
2023-05-10T17:56:22.238Z,3.28
2023-05-10T17:59:10.290Z,3.07
2023-05-10T18:01:58.182Z,3.17
2023-05-10T18:04:46.352Z,2.70
2023-05-10T18:07:35.856Z,2.88
2023-05-10T18:10:25.375Z,3.00
2023-05-10T18:13:14.714Z,2.60
2023-05-10T18:16:04.580Z,2.80
2023-05-10T18:18:52.617Z,3.25
2023-05-10T18:21:40.748Z,3.08
2023-05-10T18:24:38.362Z,3.20
2023-05-10T18:27:27.471Z,3.07
2023-05-10T18:30:17.355Z,3.38
2023-05-10T18:33:05.333Z,3.00
2023-05-10T18:35:53.353Z,3.15
2023-05-10T18:38:41.725Z,3.60
2023-05-10T18:41:29.729Z,3.30
2023-05-10T18:44:18.817Z,3.58
2023-05-10T18:47:08.294Z,3.22
2023-05-10T18:49:56.418Z,3.55
2023-05-10T18:52:44.378Z,3.30
2023-05-10T18:55:32.635Z,2.80
2023-05-10T18:58:20.755Z,2.70
2023-05-10T19:01:08.990Z,2.92
2023-05-10T19:03:58.875Z,2.60
2023-05-10T19:06:46.922Z,2.63
2023-05-10T19:09:34.830Z,2.60
2023-05-10T19:12:22.810Z,2.70
2023-05-10T19:15:11.690Z,2.42
2023-05-10T19:17:59.672Z,2.40
2023-05-10T19:20:49.083Z,2.67
2023-05-10T19:23:38.690Z,2.93
2023-05-10T19:26:26.793Z,2.60
2023-05-10T19:29:14.820Z,2.70
2023-05-10T19:32:02.887Z,2.70
2023-05-10T19:34:52.726Z,2.80
2023-05-10T19:37:45.857Z,3.17
2023-05-10T19:40:33.759Z,2.70
2023-05-10T19:43:21.712Z,1.98
2023-05-10T19:46:10.001Z,3.00
2023-05-10T19:48:58.162Z,2.90
2023-05-10T19:51:46.208Z,3.07
2023-05-10T19:54:35.680Z,3.08
2023-05-10T19:57:23.994Z,3.22
2023-05-10T20:00:13.156Z,3.20
2023-05-10T20:03:01.207Z,3.67
2023-05-10T20:05:49.390Z,3.10
2023-05-10T20:08:37.357Z,3.33
2023-05-10T20:11:26.834Z,3.50
2023-05-10T20:14:14.982Z,3.10
2023-05-10T20:17:03.150Z,2.95
2023-05-10T20:19:51.157Z,3.23
2023-05-10T20:22:39.198Z,3.92
2023-05-10T20:25:27.265Z,3.50
2023-05-10T20:28:16.661Z,3.05
2023-05-10T20:31:04.729Z,3.20
2023-05-10T20:33:52.754Z,3.20
2023-05-10T20:36:40.803Z,2.92
2023-05-10T20:39:28.961Z,2.85
2023-05-10T20:42:16.927Z,3.10
2023-05-10T20:45:07.703Z,3.15
2023-05-10T20:47:56.208Z,3.27
2023-05-10T20:50:44.240Z,3.60
2023-05-10T20:53:32.237Z,3.65
2023-05-10T20:56:20.185Z,3.45
2023-05-10T20:59:08.197Z,3.10
2023-05-10T21:01:57.749Z,3.10
2023-05-10T21:04:45.897Z,3.45
2023-05-10T21:07:33.911Z,3.20
2023-05-10T21:10:22.156Z,3.03
2023-05-10T21:13:10.289Z,2.83
2023-05-10T21:15:58.458Z,3.47
2023-05-10T21:18:48.261Z,3.83
2023-05-10T21:21:36.244Z,3.40
2023-05-10T21:24:24.326Z,3.63
2023-05-10T21:27:12.325Z,3.63
2023-05-10T21:30:00.748Z,3.43
2023-05-10T21:32:48.810Z,3.38
2023-05-10T21:35:39.402Z,4.28
2023-05-10T21:38:28.623Z,3.80
2023-05-10T21:41:16.595Z,3.65
2023-05-10T21:44:05.091Z,4.20
2023-05-10T21:46:53.127Z,3.92
2023-05-10T21:49:41.180Z,4.05
2023-05-10T21:52:30.603Z,3.40
2023-05-10T21:55:19.366Z,3.67
2023-05-10T21:58:07.323Z,3.90
2023-05-10T22:00:55.384Z,4.30
2023-05-10T22:03:43.472Z,4.15
2023-05-10T22:06:31.886Z,4.50
2023-05-10T22:09:21.672Z,3.78
2023-05-10T22:12:09.661Z,4.63
2023-05-10T22:15:09.422Z,4.85
2023-05-10T22:17:58.690Z,4.55
2023-05-10T22:20:47.304Z,5.55
2023-05-10T22:23:35.351Z,5.10
2023-05-10T22:26:24.725Z,4.53
2023-05-10T22:29:12.831Z,5.20
2023-05-10T22:32:05.485Z,5.45
2023-05-10T22:34:53.546Z,5.43
2023-05-10T22:37:41.671Z,5.57
2023-05-10T22:40:29.798Z,5.50
2023-05-10T22:43:19.325Z,5.50
2023-05-10T22:46:07.455Z,5.78
2023-05-10T22:48:55.904Z,5.90
2023-05-10T22:51:43.981Z,5.93
2023-05-10T22:54:33.193Z,7.17
2023-05-10T22:57:22.961Z,6.15
2023-05-10T23:00:13.759Z,7.38
2023-05-10T23:03:01.898Z,7.35
2023-05-10T23:05:50.028Z,6.68
2023-05-10T23:08:38.044Z,7.03
2023-05-10T23:11:26.171Z,6.85
2023-05-10T23:14:14.138Z,7.07
2023-05-10T23:17:03.494Z,7.28
2023-05-10T23:19:51.550Z,7.40
2023-05-10T23:22:40.144Z,8.13
2023-05-10T23:25:28.198Z,7.75
2023-05-10T23:28:16.345Z,7.35
2023-05-10T23:31:04.576Z,7.50
2023-05-10T23:33:54.138Z,8.23
2023-05-10T23:36:42.245Z,7.50
2023-05-10T23:39:30.306Z,7.90
2023-05-10T23:42:18.388Z,7.53
2023-05-10T23:45:07.036Z,7.22
2023-05-10T23:47:54.948Z,7.30
2023-05-10T23:50:46.632Z,8.30
2023-05-10T23:53:34.570Z,8.02
2023-05-10T23:56:22.971Z,7.63
2023-05-10T23:59:11.071Z,8.13
